sensor_id;sensor_type;location;lat;lon;timestamp;P1;durP1;ratioP1;P2;durP2;ratioP2
39888;SDS011;25563;50.844;4.308;2022-07-29T00:01:30;3.70;;;1.20;;
39888;SDS011;25563;50.844;4.308;2022-07-29T00:03:56;5.95;;;1.77;;
39888;SDS011;25563;50.844;4.308;2022-07-29T00:06:24;1.65;;;1.05;;
39888;SDS011;25563;50.844;4.308;2022-07-29T00:08:57;4.75;;;1.27;;
39888;SDS011;25563;50.844;4.308;2022-07-29T00:11:23;1.90;;;1.02;;
39888;SDS011;25563;50.844;4.308;2022-07-29T00:13:49;5.35;;;1.50;;
39888;SDS011;25563;50.844;4.308;2022-07-29T00:16:15;3.45;;;1.20;;
39888;SDS011;25563;50.844;4.308;2022-07-29T00:18:41;2.25;;;1.25;;
39888;SDS011;25563;50.844;4.308;2022-07-29T00:21:07;4.28;;;1.20;;
39888;SDS011;25563;50.844;4.308;2022-07-29T00:23:32;2.22;;;1.30;;
39888;SDS011;25563;50.844;4.308;2022-07-29T00:25:59;3.38;;;1.40;;
39888;SDS011;25563;50.844;4.308;2022-07-29T00:28:25;4.28;;;1.20;;
39888;SDS011;25563;50.844;4.308;2022-07-29T00:30:50;1.40;;;0.98;;
39888;SDS011;25563;50.844;4.308;2022-07-29T00:33:17;3.85;;;1.85;;
39888;SDS011;25563;50.844;4.308;2022-07-29T00:35:43;4.15;;;1.80;;
39888;SDS011;25563;50.844;4.308;2022-07-29T00:38:17;2.08;;;1.10;;
39888;SDS011;25563;50.844;4.308;2022-07-29T00:40:44;8.48;;;1.50;;
39888;SDS011;25563;50.844;4.308;2022-07-29T00:43:10;4.32;;;1.60;;
39888;SDS011;25563;50.844;4.308;2022-07-29T00:45:37;3.00;;;1.50;;
39888;SDS011;25563;50.844;4.308;2022-07-29T00:48:03;10.27;;;1.58;;
39888;SDS011;25563;50.844;4.308;2022-07-29T00:50:30;4.20;;;1.83;;
39888;SDS011;25563;50.844;4.308;2022-07-29T00:52:57;2.28;;;1.15;;
39888;SDS011;25563;50.844;4.308;2022-07-29T00:55:23;3.78;;;1.40;;
39888;SDS011;25563;50.844;4.308;2022-07-29T00:57:49;4.43;;;1.40;;
39888;SDS011;25563;50.844;4.308;2022-07-29T01:00:17;5.38;;;1.50;;
39888;SDS011;25563;50.844;4.308;2022-07-29T01:02:48;3.70;;;1.30;;
39888;SDS011;25563;50.844;4.308;2022-07-29T01:05:16;7.75;;;1.50;;
39888;SDS011;25563;50.844;4.308;2022-07-29T01:07:43;3.15;;;1.30;;
39888;SDS011;25563;50.844;4.308;2022-07-29T01:10:11;3.60;;;1.73;;
39888;SDS011;25563;50.844;4.308;2022-07-29T01:12:38;2.35;;;1.33;;
39888;SDS011;25563;50.844;4.308;2022-07-29T01:15:06;7.95;;;1.48;;
39888;SDS011;25563;50.844;4.308;2022-07-29T01:17:46;4.88;;;1.48;;
39888;SDS011;25563;50.844;4.308;2022-07-29T01:28:55;4.40;;;0.95;;
39888;SDS011;25563;50.844;4.308;2022-07-29T01:31:51;4.82;;;1.63;;
39888;SDS011;25563;50.844;4.308;2022-07-29T01:34:25;3.10;;;1.33;;
39888;SDS011;25563;50.844;4.308;2022-07-29T01:39:45;9.60;;;1.77;;
39888;SDS011;25563;50.844;4.308;2022-07-29T01:42:15;4.82;;;1.38;;
39888;SDS011;25563;50.844;4.308;2022-07-29T01:50:56;3.45;;;1.40;;
39888;SDS011;25563;50.844;4.308;2022-07-29T01:53:30;4.53;;;1.20;;
39888;SDS011;25563;50.844;4.308;2022-07-29T01:56:02;2.38;;;1.58;;
39888;SDS011;25563;50.844;4.308;2022-07-29T01:58:30;4.15;;;1.00;;
39888;SDS011;25563;50.844;4.308;2022-07-29T02:00:58;2.40;;;1.40;;
39888;SDS011;25563;50.844;4.308;2022-07-29T02:03:37;5.13;;;1.38;;
39888;SDS011;25563;50.844;4.308;2022-07-29T02:06:08;7.30;;;1.63;;
39888;SDS011;25563;50.844;4.308;2022-07-29T02:08:37;6.55;;;1.38;;
39888;SDS011;25563;50.844;4.308;2022-07-29T02:11:06;5.97;;;1.35;;
39888;SDS011;25563;50.844;4.308;2022-07-29T02:13:35;2.53;;;1.60;;
39888;SDS011;25563;50.844;4.308;2022-07-29T02:16:04;2.72;;;1.30;;
39888;SDS011;25563;50.844;4.308;2022-07-29T02:18:32;2.45;;;1.30;;
39888;SDS011;25563;50.844;4.308;2022-07-29T02:21:01;12.98;;;1.80;;
39888;SDS011;25563;50.844;4.308;2022-07-29T02:23:29;2.85;;;1.30;;
39888;SDS011;25563;50.844;4.308;2022-07-29T02:25:59;2.10;;;1.13;;
39888;SDS011;25563;50.844;4.308;2022-07-29T02:28:27;4.55;;;1.25;;
39888;SDS011;25563;50.844;4.308;2022-07-29T02:30:58;3.00;;;1.13;;
39888;SDS011;25563;50.844;4.308;2022-07-29T02:33:30;2.53;;;1.65;;
39888;SDS011;25563;50.844;4.308;2022-07-29T02:36:02;8.60;;;1.45;;
39888;SDS011;25563;50.844;4.308;2022-07-29T02:38:30;4.35;;;1.45;;
39888;SDS011;25563;50.844;4.308;2022-07-29T02:42:01;3.50;;;1.30;;
39888;SDS011;25563;50.844;4.308;2022-07-29T02:44:20;8.90;;;1.42;;
39888;SDS011;25563;50.844;4.308;2022-07-29T02:46:52;6.45;;;1.27;;
39888;SDS011;25563;50.844;4.308;2022-07-29T02:52:03;2.67;;;1.40;;
39888;SDS011;25563;50.844;4.308;2022-07-29T02:54:37;2.33;;;1.17;;
39888;SDS011;25563;50.844;4.308;2022-07-29T02:57:26;5.55;;;1.48;;
39888;SDS011;25563;50.844;4.308;2022-07-29T03:00:01;5.18;;;1.65;;
39888;SDS011;25563;50.844;4.308;2022-07-29T03:02:34;3.03;;;1.52;;
39888;SDS011;25563;50.844;4.308;2022-07-29T03:05:04;3.83;;;1.35;;
39888;SDS011;25563;50.844;4.308;2022-07-29T03:07:33;3.65;;;1.40;;
39888;SDS011;25563;50.844;4.308;2022-07-29T03:10:00;2.88;;;1.35;;
39888;SDS011;25563;50.844;4.308;2022-07-29T03:12:28;6.10;;;1.40;;
39888;SDS011;25563;50.844;4.308;2022-07-29T03:14:55;3.22;;;1.45;;
39888;SDS011;25563;50.844;4.308;2022-07-29T03:17:22;2.45;;;1.48;;
39888;SDS011;25563;50.844;4.308;2022-07-29T03:19:50;2.50;;;1.25;;
39888;SDS011;25563;50.844;4.308;2022-07-29T03:22:17;4.07;;;1.60;;
39888;SDS011;25563;50.844;4.308;2022-07-29T03:24:44;4.72;;;1.70;;
39888;SDS011;25563;50.844;4.308;2022-07-29T03:27:13;2.45;;;1.20;;
39888;SDS011;25563;50.844;4.308;2022-07-29T03:29:40;2.60;;;1.48;;
39888;SDS011;25563;50.844;4.308;2022-07-29T03:32:07;2.30;;;1.70;;
39888;SDS011;25563;50.844;4.308;2022-07-29T03:34:35;5.47;;;1.60;;
39888;SDS011;25563;50.844;4.308;2022-07-29T03:37:02;2.78;;;1.67;;
39888;SDS011;25563;50.844;4.308;2022-07-29T03:39:29;1.75;;;1.40;;
39888;SDS011;25563;50.844;4.308;2022-07-29T03:42:02;8.95;;;1.40;;
39888;SDS011;25563;50.844;4.308;2022-07-29T03:44:36;5.03;;;1.40;;
39888;SDS011;25563;50.844;4.308;2022-07-29T03:47:07;2.50;;;1.40;;
39888;SDS011;25563;50.844;4.308;2022-07-29T03:49:34;6.07;;;1.80;;
39888;SDS011;25563;50.844;4.308;2022-07-29T03:52:04;4.23;;;1.73;;
39888;SDS011;25563;50.844;4.308;2022-07-29T03:54:31;7.20;;;1.88;;
39888;SDS011;25563;50.844;4.308;2022-07-29T03:56:58;25.17;;;2.45;;
39888;SDS011;25563;50.844;4.308;2022-07-29T03:59:26;3.78;;;2.45;;
39888;SDS011;25563;50.844;4.308;2022-07-29T04:01:55;3.47;;;1.63;;
39888;SDS011;25563;50.844;4.308;2022-07-29T04:04:32;2.00;;;1.48;;
39888;SDS011;25563;50.844;4.308;2022-07-29T04:07:04;6.28;;;1.77;;
39888;SDS011;25563;50.844;4.308;2022-07-29T04:09:31;4.55;;;1.88;;
39888;SDS011;25563;50.844;4.308;2022-07-29T04:11:58;2.80;;;1.73;;
39888;SDS011;25563;50.844;4.308;2022-07-29T04:14:27;10.65;;;1.90;;
39888;SDS011;25563;50.844;4.308;2022-07-29T04:16:53;4.25;;;1.75;;
39888;SDS011;25563;50.844;4.308;2022-07-29T04:19:21;6.55;;;1.92;;
39888;SDS011;25563;50.844;4.308;2022-07-29T04:21:48;6.55;;;2.00;;
39888;SDS011;25563;50.844;4.308;2022-07-29T04:24:17;6.63;;;2.30;;
39888;SDS011;25563;50.844;4.308;2022-07-29T04:26:43;10.88;;;2.33;;
39888;SDS011;25563;50.844;4.308;2022-07-29T04:29:11;5.13;;;2.38;;
39888;SDS011;25563;50.844;4.308;2022-07-29T04:31:39;4.57;;;1.80;;
39888;SDS011;25563;50.844;4.308;2022-07-29T04:34:05;7.20;;;2.30;;
39888;SDS011;25563;50.844;4.308;2022-07-29T04:36:31;6.55;;;2.00;;
39888;SDS011;25563;50.844;4.308;2022-07-29T04:38:57;9.63;;;2.20;;
39888;SDS011;25563;50.844;4.308;2022-07-29T04:41:27;4.25;;;2.20;;
39888;SDS011;25563;50.844;4.308;2022-07-29T04:43:54;4.05;;;2.22;;
39888;SDS011;25563;50.844;4.308;2022-07-29T04:46:25;10.88;;;3.88;;
39888;SDS011;25563;50.844;4.308;2022-07-29T04:48:53;4.43;;;2.50;;
39888;SDS011;25563;50.844;4.308;2022-07-29T04:51:19;5.05;;;2.22;;
39888;SDS011;25563;50.844;4.308;2022-07-29T04:53:48;5.45;;;2.42;;
39888;SDS011;25563;50.844;4.308;2022-07-29T04:56:14;3.35;;;2.35;;
39888;SDS011;25563;50.844;4.308;2022-07-29T04:58:41;6.75;;;2.10;;
39888;SDS011;25563;50.844;4.308;2022-07-29T05:01:08;8.65;;;2.28;;
39888;SDS011;25563;50.844;4.308;2022-07-29T05:03:35;2.80;;;1.98;;
39888;SDS011;25563;50.844;4.308;2022-07-29T05:06:02;4.05;;;3.03;;
39888;SDS011;25563;50.844;4.308;2022-07-29T05:08:28;11.40;;;2.90;;
39888;SDS011;25563;50.844;4.308;2022-07-29T05:10:55;6.97;;;2.42;;
39888;SDS011;25563;50.844;4.308;2022-07-29T05:13:23;4.10;;;3.70;;
39888;SDS011;25563;50.844;4.308;2022-07-29T05:15:49;4.78;;;2.35;;
39888;SDS011;25563;50.844;4.308;2022-07-29T05:18:14;5.05;;;3.90;;
39888;SDS011;25563;50.844;4.308;2022-07-29T05:20:44;5.43;;;2.95;;
39888;SDS011;25563;50.844;4.308;2022-07-29T05:23:11;3.85;;;2.47;;
39888;SDS011;25563;50.844;4.308;2022-07-29T05:25:40;9.57;;;2.80;;
39888;SDS011;25563;50.844;4.308;2022-07-29T05:28:07;3.40;;;2.65;;
39888;SDS011;25563;50.844;4.308;2022-07-29T05:30:35;7.18;;;3.10;;
39888;SDS011;25563;50.844;4.308;2022-07-29T05:33:03;8.23;;;2.90;;
39888;SDS011;25563;50.844;4.308;2022-07-29T05:35:28;4.22;;;2.10;;
39888;SDS011;25563;50.844;4.308;2022-07-29T05:40:22;5.35;;;2.53;;
39888;SDS011;25563;50.844;4.308;2022-07-29T05:42:48;3.70;;;2.00;;
39888;SDS011;25563;50.844;4.308;2022-07-29T05:45:16;5.03;;;3.33;;
39888;SDS011;25563;50.844;4.308;2022-07-29T05:47:41;4.50;;;3.55;;
39888;SDS011;25563;50.844;4.308;2022-07-29T05:50:07;5.95;;;2.97;;
39888;SDS011;25563;50.844;4.308;2022-07-29T05:52:33;9.75;;;3.83;;
39888;SDS011;25563;50.844;4.308;2022-07-29T05:54:59;14.00;;;3.38;;
39888;SDS011;25563;50.844;4.308;2022-07-29T05:57:32;7.72;;;3.47;;
39888;SDS011;25563;50.844;4.308;2022-07-29T05:59:58;9.10;;;3.88;;
39888;SDS011;25563;50.844;4.308;2022-07-29T06:02:25;8.32;;;3.50;;
39888;SDS011;25563;50.844;4.308;2022-07-29T06:04:52;4.13;;;3.05;;
39888;SDS011;25563;50.844;4.308;2022-07-29T06:07:19;3.67;;;2.65;;
39888;SDS011;25563;50.844;4.308;2022-07-29T06:09:48;7.07;;;3.95;;
39888;SDS011;25563;50.844;4.308;2022-07-29T06:12:14;6.22;;;3.63;;
39888;SDS011;25563;50.844;4.308;2022-07-29T06:14:42;9.68;;;3.03;;
39888;SDS011;25563;50.844;4.308;2022-07-29T06:17:08;9.40;;;3.13;;
39888;SDS011;25563;50.844;4.308;2022-07-29T06:19:37;5.40;;;3.38;;
39888;SDS011;25563;50.844;4.308;2022-07-29T06:22:06;6.88;;;3.92;;
39888;SDS011;25563;50.844;4.308;2022-07-29T06:24:35;7.50;;;2.88;;
39888;SDS011;25563;50.844;4.308;2022-07-29T06:27:12;5.68;;;3.13;;
39888;SDS011;25563;50.844;4.308;2022-07-29T06:29:39;8.68;;;3.53;;
39888;SDS011;25563;50.844;4.308;2022-07-29T06:32:05;6.63;;;3.00;;
39888;SDS011;25563;50.844;4.308;2022-07-29T06:34:35;8.88;;;3.17;;
39888;SDS011;25563;50.844;4.308;2022-07-29T06:37:05;8.68;;;3.05;;
39888;SDS011;25563;50.844;4.308;2022-07-29T06:39:34;6.43;;;2.97;;
39888;SDS011;25563;50.844;4.308;2022-07-29T06:42:03;10.13;;;3.08;;
39888;SDS011;25563;50.844;4.308;2022-07-29T06:44:31;11.25;;;3.30;;
39888;SDS011;25563;50.844;4.308;2022-07-29T06:47:00;4.28;;;2.90;;
39888;SDS011;25563;50.844;4.308;2022-07-29T06:49:28;3.60;;;2.65;;
39888;SDS011;25563;50.844;4.308;2022-07-29T06:51:54;6.45;;;3.30;;
39888;SDS011;25563;50.844;4.308;2022-07-29T06:54:38;3.53;;;2.38;;
39888;SDS011;25563;50.844;4.308;2022-07-29T06:57:05;9.55;;;3.55;;
39888;SDS011;25563;50.844;4.308;2022-07-29T06:59:40;5.43;;;3.00;;
39888;SDS011;25563;50.844;4.308;2022-07-29T07:02:07;8.75;;;3.58;;
39888;SDS011;25563;50.844;4.308;2022-07-29T07:04:37;3.40;;;3.10;;
39888;SDS011;25563;50.844;4.308;2022-07-29T07:07:04;9.25;;;3.70;;
39888;SDS011;25563;50.844;4.308;2022-07-29T07:09:30;3.35;;;2.60;;
39888;SDS011;25563;50.844;4.308;2022-07-29T07:11:58;6.50;;;2.88;;
39888;SDS011;25563;50.844;4.308;2022-07-29T07:14:26;6.00;;;2.60;;
39888;SDS011;25563;50.844;4.308;2022-07-29T07:16:55;6.22;;;2.72;;
39888;SDS011;25563;50.844;4.308;2022-07-29T07:19:21;7.78;;;2.35;;
39888;SDS011;25563;50.844;4.308;2022-07-29T07:21:52;4.20;;;2.45;;
39888;SDS011;25563;50.844;4.308;2022-07-29T07:24:19;3.63;;;2.33;;
39888;SDS011;25563;50.844;4.308;2022-07-29T07:26:55;4.10;;;2.72;;
39888;SDS011;25563;50.844;4.308;2022-07-29T07:29:20;8.38;;;2.60;;
39888;SDS011;25563;50.844;4.308;2022-07-29T07:31:47;13.63;;;2.83;;
39888;SDS011;25563;50.844;4.308;2022-07-29T07:34:13;5.57;;;3.10;;
39888;SDS011;25563;50.844;4.308;2022-07-29T07:36:40;7.75;;;2.50;;
39888;SDS011;25563;50.844;4.308;2022-07-29T07:39:08;5.72;;;2.75;;
39888;SDS011;25563;50.844;4.308;2022-07-29T07:41:34;8.60;;;3.17;;
39888;SDS011;25563;50.844;4.308;2022-07-29T07:44:08;3.13;;;2.83;;
39888;SDS011;25563;50.844;4.308;2022-07-29T07:46:37;3.42;;;3.13;;
39888;SDS011;25563;50.844;4.308;2022-07-29T07:49:06;3.75;;;2.78;;
39888;SDS011;25563;50.844;4.308;2022-07-29T07:51:34;4.68;;;2.75;;
39888;SDS011;25563;50.844;4.308;2022-07-29T07:54:01;5.32;;;2.58;;
39888;SDS011;25563;50.844;4.308;2022-07-29T07:56:29;5.57;;;2.70;;
39888;SDS011;25563;50.844;4.308;2022-07-29T07:58:57;9.85;;;2.45;;
39888;SDS011;25563;50.844;4.308;2022-07-29T08:01:24;4.07;;;2.40;;
39888;SDS011;25563;50.844;4.308;2022-07-29T08:03:49;3.90;;;1.70;;
39888;SDS011;25563;50.844;4.308;2022-07-29T08:06:21;5.72;;;2.63;;
39888;SDS011;25563;50.844;4.308;2022-07-29T08:08:46;4.78;;;2.53;;
39888;SDS011;25563;50.844;4.308;2022-07-29T08:11:13;6.53;;;2.30;;
39888;SDS011;25563;50.844;4.308;2022-07-29T08:13:39;3.28;;;2.13;;
39888;SDS011;25563;50.844;4.308;2022-07-29T08:16:12;12.48;;;2.45;;
39888;SDS011;25563;50.844;4.308;2022-07-29T08:18:42;6.35;;;2.22;;
39888;SDS011;25563;50.844;4.308;2022-07-29T08:21:10;3.00;;;1.98;;
39888;SDS011;25563;50.844;4.308;2022-07-29T08:23:44;6.30;;;2.40;;
39888;SDS011;25563;50.844;4.308;2022-07-29T08:26:17;5.22;;;2.25;;
39888;SDS011;25563;50.844;4.308;2022-07-29T08:28:46;3.67;;;1.75;;
39888;SDS011;25563;50.844;4.308;2022-07-29T08:31:14;6.45;;;2.53;;
39888;SDS011;25563;50.844;4.308;2022-07-29T08:33:44;3.78;;;1.90;;
39888;SDS011;25563;50.844;4.308;2022-07-29T08:36:27;4.53;;;2.00;;
39888;SDS011;25563;50.844;4.308;2022-07-29T08:38:58;4.25;;;2.47;;
39888;SDS011;25563;50.844;4.308;2022-07-29T08:41:35;6.82;;;2.55;;
39888;SDS011;25563;50.844;4.308;2022-07-29T08:44:06;3.17;;;2.13;;
39888;SDS011;25563;50.844;4.308;2022-07-29T08:46:44;4.47;;;2.38;;
39888;SDS011;25563;50.844;4.308;2022-07-29T08:49:25;2.83;;;1.92;;
39888;SDS011;25563;50.844;4.308;2022-07-29T08:51:52;7.72;;;2.05;;
39888;SDS011;25563;50.844;4.308;2022-07-29T08:54:18;3.60;;;2.35;;
39888;SDS011;25563;50.844;4.308;2022-07-29T08:56:48;6.20;;;2.22;;
39888;SDS011;25563;50.844;4.308;2022-07-29T08:59:27;5.65;;;1.88;;
39888;SDS011;25563;50.844;4.308;2022-07-29T09:01:58;7.57;;;1.65;;
39888;SDS011;25563;50.844;4.308;2022-07-29T09:04:27;3.80;;;1.30;;
39888;SDS011;25563;50.844;4.308;2022-07-29T09:07:00;5.15;;;1.45;;
39888;SDS011;25563;50.844;4.308;2022-07-29T09:09:28;3.75;;;1.67;;
39888;SDS011;25563;50.844;4.308;2022-07-29T09:11:55;4.03;;;1.83;;
39888;SDS011;25563;50.844;4.308;2022-07-29T09:14:26;4.80;;;1.98;;
39888;SDS011;25563;50.844;4.308;2022-07-29T09:16:54;5.27;;;1.60;;
39888;SDS011;25563;50.844;4.308;2022-07-29T09:19:29;2.97;;;2.00;;
39888;SDS011;25563;50.844;4.308;2022-07-29T09:21:58;2.47;;;2.08;;
39888;SDS011;25563;50.844;4.308;2022-07-29T09:27:08;3.65;;;1.77;;
39888;SDS011;25563;50.844;4.308;2022-07-29T09:29:45;2.90;;;1.65;;
39888;SDS011;25563;50.844;4.308;2022-07-29T09:32:54;4.57;;;1.77;;
39888;SDS011;25563;50.844;4.308;2022-07-29T09:35:24;4.47;;;1.33;;
39888;SDS011;25563;50.844;4.308;2022-07-29T09:38:13;6.05;;;1.55;;
39888;SDS011;25563;50.844;4.308;2022-07-29T09:41:02;4.28;;;1.17;;
39888;SDS011;25563;50.844;4.308;2022-07-29T09:44:01;2.95;;;1.73;;
39888;SDS011;25563;50.844;4.308;2022-07-29T09:47:03;2.50;;;1.88;;
39888;SDS011;25563;50.844;4.308;2022-07-29T09:49:55;7.38;;;1.75;;
39888;SDS011;25563;50.844;4.308;2022-07-29T09:52:52;5.07;;;1.35;;
39888;SDS011;25563;50.844;4.308;2022-07-29T09:55:18;3.45;;;1.75;;
39888;SDS011;25563;50.844;4.308;2022-07-29T09:57:46;4.13;;;1.50;;
39888;SDS011;25563;50.844;4.308;2022-07-29T10:00:16;5.45;;;1.48;;
39888;SDS011;25563;50.844;4.308;2022-07-29T10:02:44;3.92;;;1.45;;
39888;SDS011;25563;50.844;4.308;2022-07-29T10:05:26;2.78;;;1.20;;
39888;SDS011;25563;50.844;4.308;2022-07-29T10:07:56;5.00;;;1.85;;
39888;SDS011;25563;50.844;4.308;2022-07-29T10:10:29;10.30;;;3.78;;
39888;SDS011;25563;50.844;4.308;2022-07-29T10:12:57;2.88;;;1.98;;
39888;SDS011;25563;50.844;4.308;2022-07-29T10:15:29;7.25;;;2.20;;
39888;SDS011;25563;50.844;4.308;2022-07-29T10:17:57;5.38;;;2.05;;
39888;SDS011;25563;50.844;4.308;2022-07-29T10:20:27;3.23;;;2.23;;
39888;SDS011;25563;50.844;4.308;2022-07-29T10:22:54;8.68;;;1.70;;
39888;SDS011;25563;50.844;4.308;2022-07-29T10:25:24;7.65;;;2.78;;
39888;SDS011;25563;50.844;4.308;2022-07-29T10:27:51;4.50;;;1.65;;
39888;SDS011;25563;50.844;4.308;2022-07-29T10:30:22;5.85;;;2.17;;
39888;SDS011;25563;50.844;4.308;2022-07-29T10:39:00;5.68;;;1.95;;
39888;SDS011;25563;50.844;4.308;2022-07-29T10:41:47;3.22;;;1.73;;
39888;SDS011;25563;50.844;4.308;2022-07-29T10:44:40;7.40;;;2.58;;
39888;SDS011;25563;50.844;4.308;2022-07-29T10:47:11;2.63;;;1.85;;
39888;SDS011;25563;50.844;4.308;2022-07-29T10:50:03;5.82;;;1.80;;
39888;SDS011;25563;50.844;4.308;2022-07-29T10:53:12;5.88;;;1.90;;
39888;SDS011;25563;50.844;4.308;2022-07-29T10:55:30;2.90;;;2.03;;
39888;SDS011;25563;50.844;4.308;2022-07-29T11:00:50;4.75;;;1.70;;
39888;SDS011;25563;50.844;4.308;2022-07-29T11:03:43;4.43;;;1.83;;
39888;SDS011;25563;50.844;4.308;2022-07-29T11:06:13;2.92;;;1.45;;
39888;SDS011;25563;50.844;4.308;2022-07-29T11:08:39;2.70;;;1.42;;
39888;SDS011;25563;50.844;4.308;2022-07-29T11:14:00;6.18;;;1.75;;
39888;SDS011;25563;50.844;4.308;2022-07-29T11:16:31;7.50;;;1.88;;
39888;SDS011;25563;50.844;4.308;2022-07-29T11:19:34;6.43;;;1.50;;
39888;SDS011;25563;50.844;4.308;2022-07-29T11:22:03;7.20;;;1.92;;
39888;SDS011;25563;50.844;4.308;2022-07-29T11:24:34;4.50;;;2.10;;
39888;SDS011;25563;50.844;4.308;2022-07-29T11:27:07;5.63;;;2.80;;
39888;SDS011;25563;50.844;4.308;2022-07-29T11:32:38;5.38;;;2.00;;
39888;SDS011;25563;50.844;4.308;2022-07-29T11:36:05;3.63;;;1.40;;
39888;SDS011;25563;50.844;4.308;2022-07-29T11:38:52;8.73;;;2.17;;
39888;SDS011;25563;50.844;4.308;2022-07-29T11:48:23;8.07;;;2.40;;
39888;SDS011;25563;50.844;4.308;2022-07-29T11:51:13;6.78;;;2.30;;
39888;SDS011;25563;50.844;4.308;2022-07-29T11:53:46;8.07;;;1.95;;
39888;SDS011;25563;50.844;4.308;2022-07-29T11:56:13;8.32;;;2.17;;
39888;SDS011;25563;50.844;4.308;2022-07-29T11:58:44;4.75;;;2.03;;
39888;SDS011;25563;50.844;4.308;2022-07-29T12:01:15;4.78;;;1.80;;
39888;SDS011;25563;50.844;4.308;2022-07-29T12:03:44;4.88;;;1.50;;
39888;SDS011;25563;50.844;4.308;2022-07-29T12:06:12;7.38;;;2.05;;
39888;SDS011;25563;50.844;4.308;2022-07-29T12:08:40;3.60;;;1.73;;
39888;SDS011;25563;50.844;4.308;2022-07-29T12:11:17;3.83;;;1.23;;
39888;SDS011;25563;50.844;4.308;2022-07-29T12:13:49;7.63;;;1.67;;
39888;SDS011;25563;50.844;4.308;2022-07-29T12:16:15;12.52;;;2.20;;
39888;SDS011;25563;50.844;4.308;2022-07-29T12:18:41;5.20;;;1.83;;
39888;SDS011;25563;50.844;4.308;2022-07-29T12:21:07;3.72;;;1.33;;
39888;SDS011;25563;50.844;4.308;2022-07-29T12:23:36;8.05;;;1.88;;
39888;SDS011;25563;50.844;4.308;2022-07-29T12:31:24;5.68;;;1.80;;
39888;SDS011;25563;50.844;4.308;2022-07-29T12:33:57;4.75;;;1.92;;
39888;SDS011;25563;50.844;4.308;2022-07-29T12:36:29;5.15;;;2.15;;
39888;SDS011;25563;50.844;4.308;2022-07-29T12:39:16;2.30;;;1.42;;
39888;SDS011;25563;50.844;4.308;2022-07-29T12:41:43;2.20;;;1.63;;
39888;SDS011;25563;50.844;4.308;2022-07-29T12:44:14;5.97;;;1.85;;
39888;SDS011;25563;50.844;4.308;2022-07-29T12:46:42;3.28;;;1.77;;
39888;SDS011;25563;50.844;4.308;2022-07-29T12:49:21;2.70;;;1.45;;
39888;SDS011;25563;50.844;4.308;2022-07-29T12:51:57;5.13;;;1.80;;
39888;SDS011;25563;50.844;4.308;2022-07-29T12:54:23;4.47;;;1.90;;
39888;SDS011;25563;50.844;4.308;2022-07-29T12:56:58;4.78;;;1.17;;
39888;SDS011;25563;50.844;4.308;2022-07-29T12:59:25;3.45;;;1.45;;
39888;SDS011;25563;50.844;4.308;2022-07-29T13:01:51;4.47;;;1.50;;
39888;SDS011;25563;50.844;4.308;2022-07-29T13:07:03;4.50;;;1.17;;
39888;SDS011;25563;50.844;4.308;2022-07-29T13:12:19;4.57;;;1.10;;
39888;SDS011;25563;50.844;4.308;2022-07-29T13:14:48;2.83;;;1.10;;
39888;SDS011;25563;50.844;4.308;2022-07-29T13:17:15;2.60;;;1.25;;
39888;SDS011;25563;50.844;4.308;2022-07-29T13:19:45;3.47;;;1.05;;
39888;SDS011;25563;50.844;4.308;2022-07-29T13:22:19;1.83;;;0.93;;
39888;SDS011;25563;50.844;4.308;2022-07-29T13:25:07;2.25;;;1.10;;
39888;SDS011;25563;50.844;4.308;2022-07-29T13:27:36;2.05;;;1.10;;
39888;SDS011;25563;50.844;4.308;2022-07-29T13:30:04;2.25;;;1.25;;
39888;SDS011;25563;50.844;4.308;2022-07-29T13:32:36;6.40;;;1.95;;
39888;SDS011;25563;50.844;4.308;2022-07-29T13:35:06;5.30;;;1.05;;
39888;SDS011;25563;50.844;4.308;2022-07-29T13:37:35;1.83;;;1.00;;
39888;SDS011;25563;50.844;4.308;2022-07-29T13:40:05;4.78;;;1.27;;
39888;SDS011;25563;50.844;4.308;2022-07-29T13:42:35;2.17;;;1.02;;
39888;SDS011;25563;50.844;4.308;2022-07-29T13:45:05;4.70;;;1.10;;
39888;SDS011;25563;50.844;4.308;2022-07-29T13:47:33;2.00;;;1.00;;
39888;SDS011;25563;50.844;4.308;2022-07-29T13:50:02;3.45;;;1.48;;
39888;SDS011;25563;50.844;4.308;2022-07-29T13:55:03;3.10;;;0.80;;
39888;SDS011;25563;50.844;4.308;2022-07-29T13:57:31;1.85;;;0.70;;
39888;SDS011;25563;50.844;4.308;2022-07-29T13:59:56;4.80;;;1.00;;
39888;SDS011;25563;50.844;4.308;2022-07-29T14:02:22;3.00;;;1.20;;
39888;SDS011;25563;50.844;4.308;2022-07-29T14:04:50;8.98;;;1.10;;
39888;SDS011;25563;50.844;4.308;2022-07-29T14:07:16;2.50;;;1.02;;
39888;SDS011;25563;50.844;4.308;2022-07-29T14:09:42;3.65;;;1.00;;
39888;SDS011;25563;50.844;4.308;2022-07-29T14:12:10;2.70;;;0.80;;
39888;SDS011;25563;50.844;4.308;2022-07-29T14:14:44;3.78;;;1.45;;
39888;SDS011;25563;50.844;4.308;2022-07-29T14:17:10;6.18;;;1.20;;
39888;SDS011;25563;50.844;4.308;2022-07-29T14:19:36;5.28;;;1.20;;
39888;SDS011;25563;50.844;4.308;2022-07-29T14:22:04;3.13;;;1.30;;
39888;SDS011;25563;50.844;4.308;2022-07-29T14:24:31;3.23;;;1.20;;
39888;SDS011;25563;50.844;4.308;2022-07-29T14:26:58;2.03;;;0.90;;
39888;SDS011;25563;50.844;4.308;2022-07-29T14:29:25;3.53;;;2.08;;
39888;SDS011;25563;50.844;4.308;2022-07-29T14:35:08;1.27;;;0.65;;
39888;SDS011;25563;50.844;4.308;2022-07-29T14:37:37;4.20;;;0.80;;
39888;SDS011;25563;50.844;4.308;2022-07-29T14:40:03;1.75;;;0.65;;
39888;SDS011;25563;50.844;4.308;2022-07-29T14:42:36;3.58;;;0.88;;
39888;SDS011;25563;50.844;4.308;2022-07-29T14:45:04;4.97;;;1.00;;
39888;SDS011;25563;50.844;4.308;2022-07-29T14:47:32;2.78;;;1.13;;
39888;SDS011;25563;50.844;4.308;2022-07-29T14:50:01;3.65;;;0.88;;
39888;SDS011;25563;50.844;4.308;2022-07-29T14:52:29;3.95;;;1.10;;
39888;SDS011;25563;50.844;4.308;2022-07-29T14:54:55;2.97;;;0.90;;
39888;SDS011;25563;50.844;4.308;2022-07-29T14:57:21;5.15;;;0.90;;
39888;SDS011;25563;50.844;4.308;2022-07-29T14:59:46;3.63;;;0.90;;
39888;SDS011;25563;50.844;4.308;2022-07-29T15:02:12;3.78;;;1.23;;
39888;SDS011;25563;50.844;4.308;2022-07-29T15:04:39;3.75;;;1.05;;
39888;SDS011;25563;50.844;4.308;2022-07-29T15:07:09;2.47;;;1.08;;
39888;SDS011;25563;50.844;4.308;2022-07-29T15:09:35;1.35;;;0.68;;
39888;SDS011;25563;50.844;4.308;2022-07-29T15:12:01;4.80;;;1.35;;
39888;SDS011;25563;50.844;4.308;2022-07-29T15:16:56;2.45;;;0.98;;
39888;SDS011;25563;50.844;4.308;2022-07-29T15:19:22;4.10;;;1.00;;
39888;SDS011;25563;50.844;4.308;2022-07-29T15:21:49;3.58;;;1.10;;
39888;SDS011;25563;50.844;4.308;2022-07-29T15:24:16;5.70;;;0.80;;
39888;SDS011;25563;50.844;4.308;2022-07-29T15:26:44;4.25;;;1.13;;
39888;SDS011;25563;50.844;4.308;2022-07-29T15:29:10;10.85;;;1.52;;
39888;SDS011;25563;50.844;4.308;2022-07-29T15:31:40;6.45;;;1.20;;
39888;SDS011;25563;50.844;4.308;2022-07-29T15:34:08;3.30;;;1.10;;
39888;SDS011;25563;50.844;4.308;2022-07-29T15:36:34;4.70;;;1.13;;
39888;SDS011;25563;50.844;4.308;2022-07-29T15:39:02;1.75;;;1.00;;
39888;SDS011;25563;50.844;4.308;2022-07-29T15:41:28;2.27;;;1.10;;
39888;SDS011;25563;50.844;4.308;2022-07-29T15:43:54;2.90;;;1.35;;
39888;SDS011;25563;50.844;4.308;2022-07-29T15:46:22;6.05;;;1.30;;
39888;SDS011;25563;50.844;4.308;2022-07-29T15:49:08;3.20;;;1.20;;
39888;SDS011;25563;50.844;4.308;2022-07-29T15:51:34;6.47;;;1.27;;
39888;SDS011;25563;50.844;4.308;2022-07-29T15:54:04;4.47;;;1.48;;
39888;SDS011;25563;50.844;4.308;2022-07-29T15:56:30;5.35;;;1.40;;
39888;SDS011;25563;50.844;4.308;2022-07-29T15:58:59;2.70;;;1.13;;
39888;SDS011;25563;50.844;4.308;2022-07-29T16:01:26;2.85;;;1.40;;
39888;SDS011;25563;50.844;4.308;2022-07-29T16:03:52;4.03;;;1.30;;
39888;SDS011;25563;50.844;4.308;2022-07-29T16:06:19;5.90;;;1.15;;
39888;SDS011;25563;50.844;4.308;2022-07-29T16:08:46;4.35;;;1.08;;
39888;SDS011;25563;50.844;4.308;2022-07-29T16:11:12;6.20;;;1.83;;
39888;SDS011;25563;50.844;4.308;2022-07-29T16:13:38;1.65;;;1.20;;